Aviation Digital Data Service (ADDS)

Output produced by METARs form (0100 UTC 28 August 2014)
found at http://www.aviationweather.gov/adds/metars/
 
METAR text: EPBY 280030Z 26003KT CAVOK 10/08 Q1014
Conditions at: EPBY (BYDGOSZDZ , PL) observed 0030 UTC 28 August 2014
Temperature: 10.0°C (50°F)
Dewpoint: 8.0°C (46°F) [RH = 87%]
Pressure (altimeter): 29.94 inches Hg (1014.0 mb)
Winds: from the W (260 degrees) at 3 MPH (3 knots; 1.6 m/s)
Visibility: 6 or more miles (10+ km)
Ceiling: ceiling and visibility are OK
Clouds: unknown
Weather: no significant weather observed at this time

Forecast for: EPBY (BYDGOSZDZ , PL)
Text: TAF EPBY 272330Z 2800/2809 23004KT CAVOK
Forecast period: 0000 to 0900 UTC 28 August 2014
Forecast type: FROM: standard forecast or significant change
Winds: from the SW (230 degrees) at 5 MPH (4 knots; 2.1 m/s)
Visibility: 6 or more miles (10+ km)
Clouds: not forecast
Weather: NSW  (no significant weather)
Text: PROB30 2803/2806 BKN005
Forecast period: 0300 to 0600 UTC 28 August 2014
Forecast type: PROBABLE: 30 percent likelihood of the following during this time
Ceiling: 500 feet AGL
Clouds: broken clouds at 500 feet AGL
Weather: no significant weather forecast for this period